Time;durP1;ratioP1;P1;durP2;ratioP2;P2;SDS_P1;SDS_P2;PMS_P1;PMS_P2;Temp;Humidity;BMP_temperature;BMP_pressure;BME280_temperature;BME280_humidity;BME280_pressure;Samples;Min_cycle;Max_cycle;Signal;HPM_P1;HPM_P2
2022/11/11 04:47:54;;;;;;;;;;;;;;;13.83;74.51;98416.81;4190724;27;10331;-77
2022/11/11 04:49:57;;;;;;;;;;;;;;;14.12;73.91;98412.66;4188019;28;7734;-77
2022/11/11 04:52:27;;;;;;;;;;;;;;;14.31;73.46;98416.69;4192024;28;5977;-78
2022/11/11 04:56:46;;;;;;;;;;;;;;;14.49;73.05;98410.06;4192194;28;5743;-77
2022/11/11 04:56:53;;;;;;;;;;;;;;;14.65;72.75;98409.13;4190878;28;5896;-77
2022/11/11 05:03:14;;;;;;;;;;;;;;;14.80;72.08;98409.97;4194806;28;5728;-75
2022/11/11 05:03:37;;;;;;;;;;;;;;;14.88;71.80;98411.75;4193081;28;5778;-76
2022/11/11 05:10:47;;;;;;;;;;;;;;;14.99;71.39;98394.50;4071577;29;6011;-76
2022/11/11 05:12:50;;;;;;;;;;;;;;;15.01;71.36;98406.63;4065956;29;6015;-76
2022/11/11 05:21:53;;;;;;;;;;;;;;;15.09;70.54;98403.06;4073655;29;6038;-74
2022/11/11 05:26:17;;;;;;;;;;;;;;;15.17;70.28;98407.44;4073117;29;5848;-77
2022/11/11 05:28:19;;;;;;;;;;;;;;;15.17;70.25;98399.47;4074199;29;5865;-76
2022/11/11 05:30:24;;;;;;;;;;;;;;;15.18;70.11;98407.31;4065958;29;5996;-76
2022/11/11 05:32:27;;;;;;;;;;;;;;;15.21;70.16;98408.75;4077424;29;5915;-76
2022/11/11 05:34:31;;;;;;;;;;;;;;;15.22;70.04;98405.09;4077783;29;5851;-76
2022/11/11 05:36:35;;;;;;;;;;;;;;;15.24;69.87;98403.88;4078435;29;5874;-76
2022/11/11 05:38:38;;;;;;;;;;;;;;;15.26;69.82;98401.84;4079884;29;5872;-75
2022/11/11 05:40:41;;;;;;;;;;;;;;;15.28;69.57;98405.16;4079247;29;5899;-77
2022/11/11 05:42:44;;;;;;;;;;;;;;;15.29;69.29;98404.19;4158766;28;5926;-76
2022/11/11 05:44:55;;;;;;;;;;;;;;;15.29;69.17;98409.50;4191508;28;5913;-76
2022/11/11 05:46:58;;;;;;;;;;;;;;;15.29;69.38;98416.66;4190802;28;5877;-76
2022/11/11 05:51:30;;;;;;;;;;;;;;;15.29;69.02;98412.16;4173725;28;5778;-76
2022/11/11 05:53:40;;;;;;;;;;;;;;;15.31;68.94;98411.97;4182609;28;5921;-76
2022/11/11 05:55:43;;;;;;;;;;;;;;;15.32;69.03;98416.31;4183562;28;5719;-76
2022/11/11 05:57:46;;;;;;;;;;;;;;;15.32;68.84;98418.97;4184313;28;5719;-76
2022/11/11 05:59:49;;;;;;;;;;;;;;;15.35;68.76;98418.59;4179197;28;5704;-76
2022/11/11 06:01:52;;;;;;;;;;;;;;;15.35;68.67;98422.09;4182313;28;5727;-76
2022/11/11 06:03:55;;;;;;;;;;;;;;;15.36;68.45;98423.72;4184147;28;5714;-76
2022/11/11 06:05:58;;;;;;;;;;;;;;;15.36;68.57;98422.91;4181397;28;5885;-76
2022/11/11 06:08:02;;;;;;;;;;;;;;;15.36;68.25;98417.56;4183361;28;5831;-75
2022/11/11 06:13:00;;;;;;;;;;;;;;;15.36;67.96;98422.91;4182884;28;5707;-77
2022/11/11 06:14:49;;;;;;;;;;;;;;;15.34;67.98;98424.94;4182696;28;5878;-77
2022/11/11 06:16:51;;;;;;;;;;;;;;;15.32;67.89;98427.78;4179416;28;5837;-76
2022/11/11 06:18:54;;;;;;;;;;;;;;;15.34;67.71;98431.09;4178319;28;5802;-76
2022/11/11 06:20:58;;;;;;;;;;;;;;;15.33;67.69;98424.09;4180674;28;5774;-77
2022/11/11 06:23:03;;;;;;;;;;;;;;;15.33;67.78;98423.28;4173599;28;5753;-76
2022/11/11 06:27:24;;;;;;;;;;;;;;;15.35;67.40;98429.25;4185222;28;6400;-76
2022/11/11 06:29:27;;;;;;;;;;;;;;;15.35;67.64;98429.25;4185051;28;5791;-77
2022/11/11 06:31:30;;;;;;;;;;;;;;;15.35;67.30;98437.25;4185040;28;5714;-76
2022/11/11 06:33:33;;;;;;;;;;;;;;;15.36;67.29;98436.22;4168799;28;5728;-77
2022/11/11 06:35:37;;;;;;;;;;;;;;;15.35;67.29;98439.91;4176845;28;5798;-77
2022/11/11 06:37:40;;;;;;;;;;;;;;;15.36;67.16;98439.72;4184220;28;5883;-77
2022/11/11 06:39:45;;;;;;;;;;;;;;;15.36;66.91;98437.06;4181271;28;5707;-76
2022/11/11 06:41:47;;;;;;;;;;;;;;;15.35;67.06;98437.25;4185060;28;5714;-76
2022/11/11 06:43:50;;;;;;;;;;;;;;;15.37;66.94;98443.22;4185186;28;5738;-76
2022/11/11 06:45:55;;;;;;;;;;;;;;;15.38;66.95;98447.53;4185040;28;5862;-75
2022/11/11 06:47:58;;;;;;;;;;;;;;;15.37;66.82;98448.53;4185435;28;5719;-77
2022/11/11 06:50:00;;;;;;;;;;;;;;;15.38;66.80;98450.19;4185366;28;5712;-76
2022/11/11 06:52:03;;;;;;;;;;;;;;;15.39;66.70;98454.50;4184960;28;5715;-76
2022/11/11 06:54:06;;;;;;;;;;;;;;;15.38;66.72;98452.84;4185206;28;5715;-76
2022/11/11 06:56:11;;;;;;;;;;;;;;;15.37;66.64;98448.53;4184762;28;5715;-75
2022/11/11 06:58:16;;;;;;;;;;;;;;;15.35;66.62;98456.72;4185185;28;5746;-76
2022/11/11 07:00:20;;;;;;;;;;;;;;;15.36;66.49;98460.22;4179895;28;5880;-76
2022/11/11 07:02:23;;;;;;;;;;;;;;;15.35;66.44;98458.56;4181600;28;5830;-76
2022/11/11 07:04:26;;;;;;;;;;;;;;;15.34;66.40;98468.38;4171235;28;5765;-77
2022/11/11 07:06:29;;;;;;;;;;;;;;;15.33;66.18;98472.06;4172456;28;5859;-77
2022/11/11 07:08:33;;;;;;;;;;;;;;;15.33;66.25;98466.75;4179748;28;5738;-76
2022/11/11 07:10:38;;;;;;;;;;;;;;;15.32;66.15;98461.59;4168445;28;5744;-76
2022/11/11 07:12:43;;;;;;;;;;;;;;;15.31;66.10;98454.63;4183579;28;5850;-77
2022/11/11 07:14:46;;;;;;;;;;;;;;;15.30;66.23;98456.44;4181396;28;5907;-76
2022/11/11 07:16:48;;;;;;;;;;;;;;;15.29;66.07;98453.94;4184413;28;5719;-76
2022/11/11 07:18:52;;;;;;;;;;;;;;;15.29;65.88;98462.78;4190015;28;5726;-77
2022/11/11 07:20:55;;;;;;;;;;;;;;;15.29;65.89;98464.59;4184908;28;5790;-77
2022/11/11 07:22:57;;;;;;;;;;;;;;;15.27;65.74;98466.63;4182884;28;5726;-77
2022/11/11 07:25:00;;;;;;;;;;;;;;;15.27;65.89;98464.78;4184783;28;5715;-77
2022/11/11 07:27:03;;;;;;;;;;;;;;;15.27;65.79;98464.78;4182789;28;6486;-77
2022/11/11 07:29:08;;;;;;;;;;;;;;;15.29;65.70;98464.59;4184457;28;5811;-77
2022/11/11 07:31:11;;;;;;;;;;;;;;;15.29;65.82;98461.94;4184251;28;5888;-77
2022/11/11 07:33:14;;;;;;;;;;;;;;;15.29;65.76;98462.78;4183227;28;5704;-77
2022/11/11 07:35:23;;;;;;;;;;;;;;;15.30;65.57;98463.63;4184057;28;5818;-77
2022/11/11 07:37:26;;;;;;;;;;;;;;;15.29;65.76;98469.94;4184110;28;5822;-77
2022/11/11 07:39:29;;;;;;;;;;;;;;;15.29;65.56;98468.13;4184081;28;5783;-77
2022/11/11 07:41:32;;;;;;;;;;;;;;;15.31;65.37;98473.28;4184262;28;5730;-77
2022/11/11 07:43:35;;;;;;;;;;;;;;;15.33;65.38;98473.91;4183217;28;5731;-77
2022/11/11 07:45:39;;;;;;;;;;;;;;;15.36;65.40;98474.38;4183838;28;5821;-77
2022/11/11 07:47:44;;;;;;;;;;;;;;;15.37;65.49;98485.84;4183427;28;5710;-77
2022/11/11 07:49:46;;;;;;;;;;;;;;;15.39;65.44;98481.97;4184031;28;5811;-77
2022/11/11 07:51:49;;;;;;;;;;;;;;;15.41;65.21;98482.66;4184192;28;5794;-76
2022/11/11 07:53:52;;;;;;;;;;;;;;;15.42;65.10;98486.97;4183107;28;5716;-77
2022/11/11 07:55:55;;;;;;;;;;;;;;;15.44;65.13;98490.28;4184245;28;5735;-77
2022/11/11 07:57:58;;;;;;;;;;;;;;;15.46;65.11;98486.59;4184259;28;5894;-77
2022/11/11 08:00:01;;;;;;;;;;;;;;;15.47;65.02;98499.75;4183789;28;5740;-77
2022/11/11 08:02:05;;;;;;;;;;;;;;;15.49;65.25;98497.72;4184087;28;5789;-77
2022/11/11 08:04:08;;;;;;;;;;;;;;;15.49;65.02;98497.72;4183827;28;5805;-77
2022/11/11 08:06:11;;;;;;;;;;;;;;;15.51;64.95;98489.53;4184095;28;5958;-77
2022/11/11 08:08:14;;;;;;;;;;;;;;;15.52;64.78;98492.03;4183653;28;5738;-78
2022/11/11 08:10:17;;;;;;;;;;;;;;;15.54;65.04;98491.84;4183158;28;5715;-78
2022/11/11 08:14:40;;;;;;;;;;;;;;;15.57;64.90;98494.13;4177572;28;5727;-78
2022/11/11 08:16:43;;;;;;;;;;;;;;;15.57;64.90;98497.63;4183945;28;5815;-78
2022/11/11 08:18:47;;;;;;;;;;;;;;;15.57;64.66;98497.63;4183968;28;5719;-78
2022/11/11 08:20:50;;;;;;;;;;;;;;;15.58;64.76;98501.13;4183783;28;5841;-78
2022/11/11 08:22:58;;;;;;;;;;;;;;;15.59;64.53;98500.94;4183561;28;5755;-77
2022/11/11 08:25:22;;;;;;;;;;;;;;;15.58;64.60;98512.59;4182199;28;5706;-78
2022/11/11 08:27:24;;;;;;;;;;;;;;;15.60;64.69;98504.47;4188957;28;5698;-78
2022/11/11 08:29:27;;;;;;;;;;;;;;;15.61;64.39;98498.13;4182642;28;5730;-77
2022/11/11 08:31:31;;;;;;;;;;;;;;;15.64;64.56;98506.59;4184106;28;5858;-79
2022/11/11 08:33:33;;;;;;;;;;;;;;;15.65;64.36;98513.56;4183341;28;5918;-79
2022/11/11 08:35:38;;;;;;;;;;;;;;;15.67;64.26;98511.56;4183301;28;5720;-79
2022/11/11 08:37:42;;;;;;;;;;;;;;;15.67;64.29;98510.72;4182872;28;5714;-79
2022/11/11 08:39:45;;;;;;;;;;;;;;;15.66;64.28;98512.56;4179650;28;5827;-81
2022/11/11 08:41:48;;;;;;;;;;;;;;;15.67;64.27;98510.72;4167602;28;5731;-77
2022/11/11 08:43:52;;;;;;;;;;;;;;;15.67;63.87;98516.88;4183539;28;5786;-78
2022/11/11 08:45:56;;;;;;;;;;;;;;;15.68;64.07;98517.72;4183323;28;5885;-78
2022/11/11 08:47:59;;;;;;;;;;;;;;;15.68;64.21;98526.53;4183614;28;5829;-78
2022/11/11 08:50:02;;;;;;;;;;;;;;;15.70;63.89;98521.84;4183606;28;5723;-78
2022/11/11 08:52:06;;;;;;;;;;;;;;;15.73;63.87;98523.31;4183189;28;5731;-78
2022/11/11 08:54:09;;;;;;;;;;;;;;;15.73;63.96;98523.31;4183546;28;5811;-78
2022/11/11 08:56:12;;;;;;;;;;;;;;;15.72;63.70;98518.97;4183641;28;5820;-79
2022/11/11 08:58:15;;;;;;;;;;;;;;;15.73;63.63;98526.78;4183507;28;5818;-79
2022/11/11 09:00:22;;;;;;;;;;;;;;;15.75;63.54;98528.47;4183589;28;5673;-79
2022/11/11 09:02:25;;;;;;;;;;;;;;;15.77;63.58;98539.78;4182424;28;5715;-79
2022/11/11 09:04:28;;;;;;;;;;;;;;;15.79;63.58;98535.91;4182821;28;5817;-79
2022/11/11 09:06:50;;;;;;;;;;;;;;;15.82;63.47;98534.72;4183707;28;5770;-79
2022/11/11 09:08:54;;;;;;;;;;;;;;;15.85;63.55;98532.50;4183302;28;5805;-78
2022/11/11 09:10:58;;;;;;;;;;;;;;;15.87;63.45;98535.84;4183660;28;5722;-79
2022/11/11 09:13:02;;;;;;;;;;;;;;;15.92;63.23;98529.94;4183886;28;5843;-81
2022/11/11 09:15:05;;;;;;;;;;;;;;;15.96;62.95;98536.53;4183675;28;5718;-80
2022/11/11 09:17:08;;;;;;;;;;;;;;;15.98;63.10;98534.53;4183865;28;5733;-79
2022/11/11 09:19:10;;;;;;;;;;;;;;;15.98;62.75;98539.88;4183868;28;5714;-80
2022/11/11 09:21:13;;;;;;;;;;;;;;;15.96;62.71;98545.38;4182463;28;5703;-80
2022/11/11 09:23:16;;;;;;;;;;;;;;;15.97;62.63;98548.91;4185138;28;5698;-79
2022/11/11 09:25:22;;;;;;;;;;;;;;;15.96;62.72;98547.22;4186716;28;5702;-79
2022/11/11 09:27:24;;;;;;;;;;;;;;;15.96;62.61;98548.03;4186687;28;5734;-79
2022/11/11 09:29:27;;;;;;;;;;;;;;;15.96;62.34;98547.22;4186500;28;6539;-79
2022/11/11 09:31:30;;;;;;;;;;;;;;;15.94;62.46;98546.56;4186667;28;5762;-79
2022/11/11 09:33:49;;;;;;;;;;;;;;;15.93;62.36;98552.91;4186932;28;5802;-79
2022/11/11 09:35:54;;;;;;;;;;;;;;;15.91;62.14;98549.63;4186587;28;6424;-79
2022/11/11 09:37:59;;;;;;;;;;;;;;;15.90;62.03;98553.31;4186358;28;5710;-79
2022/11/11 09:40:01;;;;;;;;;;;;;;;15.87;61.99;98546.50;4186764;28;5730;-80
2022/11/11 09:42:13;;;;;;;;;;;;;;;15.86;62.03;98554.69;4186326;28;5715;-79
2022/11/11 09:44:30;;;;;;;;;;;;;;;15.86;61.95;98547.50;4186659;28;5719;-78
2022/11/11 09:46:37;;;;;;;;;;;;;;;15.86;61.90;98565.34;4186216;28;5823;-78
2022/11/11 09:48:57;;;;;;;;;;;;;;;15.87;61.77;98559.00;4186496;28;5707;-78
2022/11/11 09:51:04;;;;;;;;;;;;;;;15.87;61.91;98556.34;4186290;28;5718;-78
2022/11/11 09:53:15;;;;;;;;;;;;;;;15.85;61.72;98553.84;4186241;28;5782;-78
2022/11/11 09:55:24;;;;;;;;;;;;;;;15.85;61.62;98561.84;4186500;28;5742;-79
2022/11/11 09:57:36;;;;;;;;;;;;;;;15.86;61.44;98560.03;4186501;28;5829;-79
2022/11/11 09:59:45;;;;;;;;;;;;;;;15.86;61.59;98560.03;4186318;28;5706;-78
2022/11/11 10:01:52;;;;;;;;;;;;;;;15.87;61.38;98556.34;4185981;28;5802;-79
2022/11/11 10:04:02;;;;;;;;;;;;;;;15.88;61.33;98568.66;4186121;28;6761;-79
2022/11/11 10:06:09;;;;;;;;;;;;;;;15.86;61.27;98557.34;4186062;28;5773;-79
2022/11/11 10:08:17;;;;;;;;;;;;;;;15.85;61.29;98566.34;4185882;28;5785;-79
2022/11/11 10:10:29;;;;;;;;;;;;;;;15.85;61.07;98566.34;4186073;28;5782;-80
2022/11/11 10:12:40;;;;;;;;;;;;;;;15.82;61.37;98562.22;4186082;28;6407;-79
2022/11/11 10:14:49;;;;;;;;;;;;;;;15.80;61.12;98560.75;4185829;28;5722;-79
2022/11/11 10:17:02;;;;;;;;;;;;;;;15.73;60.94;98547.31;4186097;28;5703;-79
2022/11/11 10:19:19;;;;;;;;;;;;;;;15.78;61.30;98555.59;4186002;28;5718;-80
2022/11/11 10:21:26;;;;;;;;;;;;;;;15.80;60.85;98555.41;4186004;28;5826;-80
2022/11/11 10:23:33;;;;;;;;;;;;;;;15.79;60.91;98551.09;4185568;28;5726;-79
2022/11/11 10:25:40;;;;;;;;;;;;;;;15.80;60.94;98553.56;4185845;28;5730;-80
2022/11/11 10:27:46;;;;;;;;;;;;;;;15.80;61.03;98529.56;4184424;28;5734;-79
2022/11/11 10:29:50;;;;;;;;;;;;;;;15.83;60.99;98541.69;4185734;28;5711;-79
2022/11/11 10:32:01;;;;;;;;;;;;;;;15.82;60.79;98534.72;4185469;28;5876;-79
2022/11/11 10:34:10;;;;;;;;;;;;;;;15.81;60.96;98533.06;4185844;28;5091;-79
2022/11/11 10:36:16;;;;;;;;;;;;;;;15.81;60.67;98533.06;4185874;28;5715;-79
2022/11/11 10:38:32;;;;;;;;;;;;;;;15.80;60.82;98526.91;4185573;28;5073;-79
2022/11/11 10:40:41;;;;;;;;;;;;;;;15.81;60.72;98528.56;4185669;28;5695;-79
2022/11/11 10:42:45;;;;;;;;;;;;;;;15.84;60.71;98524.69;4185550;28;5715;-79
2022/11/11 10:44:49;;;;;;;;;;;;;;;15.80;60.43;98523.41;4185476;28;5727;-79
2022/11/11 10:46:58;;;;;;;;;;;;;;;15.78;60.79;98523.59;4185096;28;5789;-79
2022/11/11 10:49:09;;;;;;;;;;;;;;;15.80;60.73;98520.75;4185406;28;5793;-79
2022/11/11 10:51:14;;;;;;;;;;;;;;;15.82;60.63;98524.03;4185618;28;5766;-79
2022/11/11 10:53:23;;;;;;;;;;;;;;;15.82;60.53;98513.38;4185280;28;5718;-80
2022/11/11 10:55:32;;;;;;;;;;;;;;;15.81;60.70;98517.88;4185493;28;6400;-79
2022/11/11 10:57:41;;;;;;;;;;;;;;;15.84;60.63;98516.69;4185474;28;5774;-80
2022/11/11 10:59:53;;;;;;;;;;;;;;;15.87;60.53;98511.00;4185271;28;5718;-79
2022/11/11 11:02:01;;;;;;;;;;;;;;;15.88;60.55;98502.00;4185229;28;5711;-79
2022/11/11 11:04:09;;;;;;;;;;;;;;;15.89;60.57;98499.13;4185213;28;5726;-79
2022/11/11 11:06:16;;;;;;;;;;;;;;;15.88;60.54;98496.66;4185194;28;5853;-79
2022/11/11 11:08:24;;;;;;;;;;;;;;;15.87;60.39;98492.34;4185222;28;5715;-80
2022/11/11 11:10:34;;;;;;;;;;;;;;;15.86;60.21;98490.69;4184264;28;5099;-79
2022/11/11 11:12:43;;;;;;;;;;;;;;;15.85;60.41;98478.34;4175663;28;5735;-79
2022/11/11 11:14:51;;;;;;;;;;;;;;;15.86;60.32;98485.34;4174740;28;5728;-80
2022/11/11 11:16:58;;;;;;;;;;;;;;;15.87;60.51;98473.66;4169079;28;5729;-80
2022/11/11 11:19:20;;;;;;;;;;;;;;;15.86;60.38;98478.19;4174515;28;5081;-80
2022/11/11 11:21:23;;;;;;;;;;;;;;;15.87;60.52;98471.81;4180805;28;5830;-80
2022/11/11 11:23:40;;;;;;;;;;;;;;;15.88;60.35;98472.66;4183812;28;5727;-80
2022/11/11 11:25:53;;;;;;;;;;;;;;;15.88;60.39;98469.97;4184815;28;5711;-80
2022/11/11 11:28:06;;;;;;;;;;;;;;;15.90;60.16;98470.63;4184142;28;5715;-80
2022/11/11 11:30:14;;;;;;;;;;;;;;;15.90;60.21;98471.44;4184197;28;5789;-79
2022/11/11 11:32:22;;;;;;;;;;;;;;;15.88;60.17;98461.97;4184576;28;5711;-80
2022/11/11 11:34:43;;;;;;;;;;;;;;;15.90;60.37;98467.97;4183980;28;5711;-79
2022/11/11 11:36:59;;;;;;;;;;;;;;;15.90;60.25;98460.78;4170924;28;6518;-80
2022/11/11 11:39:02;;;;;;;;;;;;;;;15.91;60.39;98456.28;4177722;28;5783;-80
2022/11/11 11:41:05;;;;;;;;;;;;;;;15.90;60.32;98451.94;4174331;28;5744;-80
2022/11/11 11:43:24;;;;;;;;;;;;;;;15.90;60.31;98451.94;4168539;28;5852;-80
2022/11/11 11:45:30;;;;;;;;;;;;;;;15.90;60.18;98447.44;4172460;28;5727;-80
2022/11/11 11:47:42;;;;;;;;;;;;;;;15.92;60.45;98445.41;4180048;28;5786;-80
2022/11/11 11:50:07;;;;;;;;;;;;;;;15.93;60.33;98447.06;4181320;28;5708;-80
2022/11/11 11:52:18;;;;;;;;;;;;;;;15.94;60.39;98448.72;4184152;28;5943;-80
2022/11/11 11:54:38;;;;;;;;;;;;;;;15.97;60.44;98442.19;4184081;28;5790;-80
2022/11/11 11:56:44;;;;;;;;;;;;;;;15.99;60.23;98437.50;4168736;28;5852;-80
2022/11/11 11:58:57;;;;;;;;;;;;;;;15.99;60.25;98434.84;4184167;28;5789;-80
2022/11/11 12:01:05;;;;;;;;;;;;;;;16.01;60.41;98425.63;4184087;28;5712;-80
2022/11/11 12:03:38;;;;;;;;;;;;;;;16.00;60.46;98436.47;4183981;28;5739;-80
2022/11/11 12:05:45;;;;;;;;;;;;;;;16.00;60.39;98423.97;4171780;28;5847;-80
2022/11/11 12:08:05;;;;;;;;;;;;;;;16.01;60.41;98424.78;4176953;28;5802;-80
2022/11/11 12:10:24;;;;;;;;;;;;;;;16.02;60.52;98418.44;4180417;28;5884;-80
2022/11/11 12:12:38;;;;;;;;;;;;;;;16.05;60.51;98411.91;4184137;28;5857;-80
2022/11/11 12:14:52;;;;;;;;;;;;;;;16.07;60.51;98412.53;4176908;28;5727;-80
2022/11/11 12:17:02;;;;;;;;;;;;;;;16.09;60.46;98407.84;4183850;28;5722;-80
2022/11/11 12:19:29;;;;;;;;;;;;;;;16.10;60.39;98415.66;4183810;28;5845;-80
2022/11/11 12:21:39;;;;;;;;;;;;;;;16.09;60.30;98400.69;4182716;28;5719;-81
2022/11/11 12:24:01;;;;;;;;;;;;;;;16.11;60.42;98408.50;4176531;28;6404;-80
2022/11/11 12:26:11;;;;;;;;;;;;;;;16.11;60.48;98409.31;4183760;28;5715;-80
2022/11/11 12:28:29;;;;;;;;;;;;;;;16.11;60.64;98403.97;4183812;28;5738;-80
2022/11/11 12:30:33;;;;;;;;;;;;;;;16.13;60.52;98399.28;4183844;28;5830;-80
2022/11/11 12:33:03;;;;;;;;;;;;;;;16.15;60.51;98396.41;4175858;28;6433;-80
2022/11/11 12:35:20;;;;;;;;;;;;;;;16.15;60.48;98397.25;4183771;28;6408;-80
2022/11/11 12:37:32;;;;;;;;;;;;;;;16.16;60.49;98400.72;4183434;28;5997;-79
2022/11/11 12:40:01;;;;;;;;;;;;;;;16.18;60.50;98396.84;4175391;28;5735;-80
2022/11/11 12:42:14;;;;;;;;;;;;;;;16.20;60.47;98392.19;4182579;28;5730;-80
2022/11/11 12:44:18;;;;;;;;;;;;;;;16.21;60.46;98391.16;4182761;28;5727;-80
2022/11/11 12:46:31;;;;;;;;;;;;;;;16.20;60.47;98392.19;4182656;28;5892;-80
2022/11/11 12:49:01;;;;;;;;;;;;;;;16.18;60.36;98391.50;4181094;28;5832;-79
2022/11/11 12:51:16;;;;;;;;;;;;;;;16.18;60.48;98383.50;4179465;28;5703;-80
2022/11/11 12:53:32;;;;;;;;;;;;;;;16.19;60.52;98392.34;4178075;28;5697;-80
2022/11/11 12:55:43;;;;;;;;;;;;;;;16.16;60.43;98382.88;4180357;28;5878;-79
2022/11/11 12:58:03;;;;;;;;;;;;;;;16.16;60.52;98382.06;4184441;28;6868;-79
2022/11/11 13:00:12;;;;;;;;;;;;;;;16.16;60.62;98376.72;4187311;28;5718;-80
2022/11/11 13:02:36;;;;;;;;;;;;;;;16.16;60.35;98374.06;4185986;28;5810;-80
2022/11/11 13:04:53;;;;;;;;;;;;;;;16.16;60.56;98361.53;4179457;28;5697;-80
2022/11/11 13:07:09;;;;;;;;;;;;;;;16.20;60.58;98367.34;4185567;28;5704;-80
2022/11/11 13:09:29;;;;;;;;;;;;;;;16.21;60.62;98369.00;4186564;28;5723;-80
2022/11/11 13:11:43;;;;;;;;;;;;;;;16.22;60.40;98354.63;4178243;28;5704;-79
2022/11/11 13:14:02;;;;;;;;;;;;;;;16.21;60.50;98359.16;4185511;28;5753;-80
2022/11/11 13:16:07;;;;;;;;;;;;;;;16.22;60.58;98355.44;4172420;28;5911;-80
2022/11/11 13:18:15;;;;;;;;;;;;;;;16.23;60.56;98357.09;4184783;28;5762;-81
2022/11/11 13:20:43;;;;;;;;;;;;;;;16.23;60.49;98354.44;4188970;28;5798;-81
2022/11/11 13:22:49;;;;;;;;;;;;;;;16.22;60.41;98344.78;4188496;28;5772;-81
2022/11/11 13:24:53;;;;;;;;;;;;;;;16.22;60.54;98354.63;4194656;28;5744;-81
2022/11/11 13:27:06;;;;;;;;;;;;;;;16.23;60.53;98359.78;4182249;28;5752;-81
2022/11/11 13:29:33;;;;;;;;;;;;;;;16.26;60.57;98353.22;4184051;28;5726;-81
2022/11/11 13:31:38;;;;;;;;;;;;;;;16.27;60.46;98358.34;4178757;28;5778;-79
2022/11/11 13:33:45;;;;;;;;;;;;;;;16.28;60.54;98354.66;4186656;28;5707;-80
2022/11/11 13:35:54;;;;;;;;;;;;;;;16.28;60.52;98357.34;4186382;28;5731;-80
2022/11/11 13:37:57;;;;;;;;;;;;;;;16.28;60.57;98354.66;4186251;28;5805;-80
2022/11/11 13:40:06;;;;;;;;;;;;;;;16.30;60.42;98357.97;4186487;28;5861;-81
2022/11/11 13:42:13;;;;;;;;;;;;;;;16.30;60.46;98352.63;4186265;28;5821;-80
2022/11/11 13:44:24;;;;;;;;;;;;;;;16.30;60.40;98347.28;4186085;28;5670;-80
2022/11/11 13:46:36;;;;;;;;;;;;;;;16.30;60.52;98352.63;4186016;28;5711;-80
2022/11/11 13:48:47;;;;;;;;;;;;;;;16.28;60.47;98343.16;4178787;28;5874;-80
2022/11/11 13:50:52;;;;;;;;;;;;;;;16.30;60.51;98347.28;4186402;28;5795;-80
2022/11/11 13:53:00;;;;;;;;;;;;;;;16.34;60.51;98341.59;4185943;28;5703;-80
2022/11/11 13:55:08;;;;;;;;;;;;;;;16.35;60.45;98346.75;4186131;28;5699;-80
2022/11/11 13:57:21;;;;;;;;;;;;;;;16.35;60.51;98338.72;4185992;28;5707;-80
2022/11/11 13:59:27;;;;;;;;;;;;;;;16.36;60.40;98344.91;4186014;28;5707;-80
2022/11/11 14:01:34;;;;;;;;;;;;;;;16.35;60.48;98332.56;4185971;28;6413;-80
2022/11/11 14:04:02;;;;;;;;;;;;;;;16.35;60.42;98335.25;4179301;28;5806;-80
2022/11/11 14:06:24;;;;;;;;;;;;;;;16.35;60.51;98332.56;4185909;28;5774;-80
2022/11/11 14:08:53;;;;;;;;;;;;;;;16.35;60.48;98335.25;4185246;28;5703;-80
2022/11/11 14:10:59;;;;;;;;;;;;;;;16.33;60.56;98338.09;4180631;28;5803;-80
2022/11/11 14:13:36;;;;;;;;;;;;;;;16.34;60.49;98338.94;4184108;28;5786;-80
2022/11/11 14:15:42;;;;;;;;;;;;;;;16.36;60.40;98339.56;4178339;28;5761;-79
2022/11/11 14:17:45;;;;;;;;;;;;;;;16.34;60.48;98342.41;4177561;28;5899;-80
2022/11/11 14:19:48;;;;;;;;;;;;;;;16.34;60.62;98341.59;4190756;28;5709;-80
2022/11/11 14:21:54;;;;;;;;;;;;;;;16.34;60.47;98341.59;4181636;28;5861;-80
2022/11/11 14:24:02;;;;;;;;;;;;;;;16.30;60.40;98341.97;4178754;28;5708;-75
2022/11/11 14:26:33;;;;;;;;;;;;;;;16.30;60.49;98339.28;4184217;28;5820;-75
2022/11/11 14:28:49;;;;;;;;;;;;;;;16.33;60.59;98339.94;4148939;28;5811;-75
2022/11/11 14:30:52;;;;;;;;;;;;;;;16.31;60.58;98340.16;4145036;28;5769;-75
2022/11/11 14:33:02;;;;;;;;;;;;;;;16.32;60.48;98344.47;4148266;28;5780;-75
2022/11/11 14:35:25;;;;;;;;;;;;;;;16.30;60.36;98347.28;4146592;28;5903;-79
2022/11/11 14:37:39;;;;;;;;;;;;;;;16.32;60.64;98340.97;4150022;28;5927;-77
2022/11/11 14:39:53;;;;;;;;;;;;;;;16.30;60.41;98344.63;4149644;28;5846;-77
2022/11/11 14:41:56;;;;;;;;;;;;;;;16.30;60.39;98341.13;4154084;28;5760;-80
2022/11/11 14:44:39;;;;;;;;;;;;;;;16.29;60.47;98342.97;4164524;28;5775;-81
2022/11/11 14:47:14;;;;;;;;;;;;;;;16.30;60.42;98341.97;4166977;28;5887;-80
2022/11/11 14:49:46;;;;;;;;;;;;;;;16.30;60.48;98349.13;4167144;28;5755;-80
2022/11/11 14:51:57;;;;;;;;;;;;;;;16.30;60.51;98357.97;4167043;28;5838;-81
2022/11/11 14:54:05;;;;;;;;;;;;;;;16.28;60.42;98346.66;4161149;28;5885;-80
2022/11/11 14:56:17;;;;;;;;;;;;;;;16.27;60.25;98347.69;4145244;28;5872;-81
2022/11/11 14:58:24;;;;;;;;;;;;;;;16.24;60.54;98334.72;4149687;28;6584;-81
2022/11/11 15:00:29;;;;;;;;;;;;;;;16.26;60.56;98345.22;4148498;28;5868;-81
2022/11/11 15:02:36;;;;;;;;;;;;;;;16.25;60.58;98336.38;4149810;28;5792;-80
2022/11/11 15:04:40;;;;;;;;;;;;;;;16.24;60.47;98334.72;4160889;28;6047;-81
2022/11/11 15:06:50;;;;;;;;;;;;;;;16.22;60.50;98336.78;4177559;28;5708;-81
2022/11/11 15:09:01;;;;;;;;;;;;;;;16.23;60.52;98343.75;4184603;28;5813;-80
2022/11/11 15:11:22;;;;;;;;;;;;;;;16.24;60.66;98344.59;4184884;28;5790;-81
2022/11/11 15:13:44;;;;;;;;;;;;;;;16.24;60.56;98353.41;4184498;28;5705;-80
2022/11/11 15:15:54;;;;;;;;;;;;;;;16.23;60.54;98341.09;4184177;28;5804;-81
2022/11/11 15:18:08;;;;;;;;;;;;;;;16.22;60.67;98344.78;4184407;28;5782;-81
2022/11/11 15:20:27;;;;;;;;;;;;;;;16.20;60.64;98341.47;4183665;28;6291;-82
2022/11/11 15:22:47;;;;;;;;;;;;;;;16.20;60.52;98341.47;4184762;28;5848;-79
2022/11/11 15:25:06;;;;;;;;;;;;;;;16.21;60.65;98343.13;4179202;28;5972;-81
2022/11/11 15:27:23;;;;;;;;;;;;;;;16.19;60.56;98345.13;4183595;28;7726;-80
2022/11/11 15:29:45;;;;;;;;;;;;;;;16.17;60.72;98341.84;4183743;28;5834;-81
2022/11/11 15:31:58;;;;;;;;;;;;;;;16.18;60.58;98343.50;4178942;28;5783;-80
2022/11/11 15:34:10;;;;;;;;;;;;;;;16.16;60.65;98350.88;4179839;28;5724;-81
2022/11/11 15:36:25;;;;;;;;;;;;;;;16.17;60.65;98349.84;4185837;28;5802;-81
2022/11/11 15:38:29;;;;;;;;;;;;;;;16.18;60.72;98354.16;4171891;28;5924;-81
2022/11/11 15:40:43;;;;;;;;;;;;;;;16.16;60.65;98350.88;4183658;28;5818;-79
2022/11/11 15:42:48;;;;;;;;;;;;;;;16.17;60.77;98349.03;4178258;28;5724;-80
2022/11/11 15:44:52;;;;;;;;;;;;;;;16.15;60.72;98346.53;4182167;28;5854;-73
2022/11/11 15:46:56;;;;;;;;;;;;;;;16.12;60.77;98352.28;4181247;28;5707;-64
2022/11/11 15:49:00;;;;;;;;;;;;;;;16.12;60.86;98349.59;4176785;28;5891;-71
2022/11/11 15:51:26;;;;;;;;;;;;;;;16.11;60.70;98353.28;4173518;28;5755;-72
2022/11/11 15:53:29;;;;;;;;;;;;;;;16.10;60.74;98351.66;4181227;28;5695;-69
2022/11/11 15:55:36;;;;;;;;;;;;;;;16.09;60.79;98346.50;4179698;28;5798;-76
2022/11/11 15:57:39;;;;;;;;;;;;;;;16.09;60.79;98350.00;4182529;28;5782;-70
2022/11/11 15:59:44;;;;;;;;;;;;;;;16.10;60.73;98356.16;4181445;28;5929;-67
2022/11/11 16:01:46;;;;;;;;;;;;;;;16.08;61.01;98348.31;4180097;28;5099;-68
2022/11/11 16:03:50;;;;;;;;;;;;;;;16.07;60.91;98354.66;4178991;28;7783;-69
2022/11/11 16:05:53;;;;;;;;;;;;;;;16.09;60.94;98366.00;4183772;28;5854;-68
2022/11/11 16:08:00;;;;;;;;;;;;;;;16.07;61.03;98360.00;4180034;28;6704;-68
2022/11/11 16:10:09;;;;;;;;;;;;;;;16.06;60.91;98363.69;4181395;28;5807;-66
2022/11/11 16:12:13;;;;;;;;;;;;;;;16.01;61.09;98356.28;4179323;28;5870;-67
2022/11/11 16:14:28;;;;;;;;;;;;;;;16.04;61.19;98363.06;4180546;28;5711;-67
2022/11/11 16:16:35;;;;;;;;;;;;;;;16.00;60.93;98345.78;4179474;28;5719;-71
2022/11/11 16:18:42;;;;;;;;;;;;;;;16.01;61.02;98358.09;4183588;28;5902;-71
2022/11/11 16:20:49;;;;;;;;;;;;;;;16.01;61.06;98358.09;4180120;28;5837;-74
2022/11/11 16:22:58;;;;;;;;;;;;;;;16.01;60.93;98355.44;4175955;28;5740;-70
2022/11/11 16:25:03;;;;;;;;;;;;;;;15.98;61.11;98355.84;4180776;28;5782;-67
2022/11/11 16:27:08;;;;;;;;;;;;;;;15.97;61.30;98354.19;4181093;28;6568;-67
2022/11/11 16:29:14;;;;;;;;;;;;;;;15.95;61.14;98359.69;4179597;28;5707;-67
2022/11/11 16:31:22;;;;;;;;;;;;;;;15.94;61.24;98352.69;4179961;28;5815;-67
2022/11/11 16:33:35;;;;;;;;;;;;;;;15.93;61.34;98356.38;4180818;28;5703;-67